Time;durP1;ratioP1;P1;durP2;ratioP2;P2;SDS_P1;SDS_P2;PMS_P1;PMS_P2;Temp;Humidity;BMP_temperature;BMP_pressure;BME280_temperature;BME280_humidity;BME280_pressure;Samples;Min_cycle;Max_cycle;Signal;HPM_P1;HPM_P2
2022/11/25 00:01:59;;;;;;;0.30;0.30;;;4.80;99.90;;;;;;4956098;28;20698;-68
2022/11/25 00:04:25;;;;;;;0.40;0.40;;;4.70;99.90;;;;;;4956208;28;20165;-67
2022/11/25 00:06:50;;;;;;;0.60;0.60;;;4.90;99.90;;;;;;4956066;28;20268;-68
2022/11/25 00:09:16;;;;;;;0.30;0.30;;;5.00;99.90;;;;;;4955875;28;20644;-68
2022/11/25 00:11:42;;;;;;;0.40;0.40;;;5.10;99.90;;;;;;4955816;28;20177;-67
2022/11/25 00:14:13;;;;;;;0.40;0.40;;;5.10;99.90;;;;;;4955844;28;20178;-69
2022/11/25 00:16:39;;;;;;;0.30;0.30;;;5.10;99.90;;;;;;4955551;28;20236;-67
2022/11/25 00:19:05;;;;;;;0.70;0.70;;;5.00;99.90;;;;;;4955978;28;20179;-67
2022/11/25 00:21:33;;;;;;;0.30;0.30;;;5.00;99.90;;;;;;4955718;28;20197;-67
2022/11/25 00:24:03;;;;;;;0.40;0.40;;;5.00;99.90;;;;;;4955615;28;20429;-67
2022/11/25 00:26:33;;;;;;;0.32;0.32;;;5.00;99.90;;;;;;4955562;28;20198;-67
2022/11/25 00:29:01;;;;;;;0.40;0.40;;;5.10;99.90;;;;;;4955731;28;20244;-68
2022/11/25 00:31:32;;;;;;;0.40;0.40;;;5.10;99.90;;;;;;4955662;28;20178;-68
2022/11/25 00:33:58;;;;;;;0.30;0.30;;;5.10;99.90;;;;;;4955762;28;20639;-67
2022/11/25 00:36:30;;;;;;;0.30;0.30;;;5.10;99.90;;;;;;4955376;28;20252;-68
2022/11/25 00:39:01;;;;;;;0.65;0.65;;;5.10;99.90;;;;;;4955708;28;20178;-68
2022/11/25 00:47:03;;;;;;;0.52;0.52;;;5.30;99.90;;;;;;4955665;28;20228;-68
2022/11/25 00:49:30;;;;;;;0.60;0.60;;;5.30;99.90;;;;;;4955199;28;20178;-67
2022/11/25 00:51:55;;;;;;;0.40;0.40;;;5.30;99.90;;;;;;4955431;28;20177;-66
2022/11/25 00:54:21;;;;;;;0.40;0.40;;;5.40;99.90;;;;;;4955477;28;20200;-67
2022/11/25 00:56:47;;;;;;;0.40;0.40;;;5.20;99.90;;;;;;4955439;28;20201;-68
2022/11/25 00:59:13;;;;;;;0.30;0.30;;;5.10;99.90;;;;;;4955079;28;20413;-66
2022/11/25 01:01:38;;;;;;;1.30;1.27;;;5.00;99.90;;;;;;4955079;28;20787;-66
2022/11/25 01:04:05;;;;;;;0.30;0.30;;;5.10;99.90;;;;;;4955618;28;20197;-67
2022/11/25 01:06:31;;;;;;;0.40;0.40;;;5.20;99.90;;;;;;4956123;28;20428;-67
2022/11/25 01:08:57;;;;;;;0.30;0.30;;;5.20;99.90;;;;;;4958947;28;20186;-68
2022/11/25 01:11:23;;;;;;;0.30;0.30;;;5.30;99.90;;;;;;4957982;29;20262;-67
2022/11/25 01:13:49;;;;;;;0.40;0.40;;;5.40;99.90;;;;;;4958930;28;20177;-68
2022/11/25 01:16:17;;;;;;;0.40;0.40;;;5.30;99.90;;;;;;4958749;28;21006;-67
2022/11/25 01:18:44;;;;;;;0.40;0.40;;;5.20;99.90;;;;;;4958964;28;20186;-68
2022/11/25 01:21:21;;;;;;;0.40;0.40;;;5.20;99.90;;;;;;4958940;28;20201;-66
2022/11/25 01:23:48;;;;;;;2.88;2.15;;;5.30;99.90;;;;;;4959113;28;20256;-67
2022/11/25 01:26:16;;;;;;;0.30;0.30;;;5.20;99.90;;;;;;4958856;28;20558;-68
2022/11/25 01:28:42;;;;;;;0.30;0.30;;;5.20;99.90;;;;;;4958836;28;20176;-67
2022/11/25 01:31:16;;;;;;;0.30;0.30;;;5.20;99.90;;;;;;4958908;28;20709;-68
2022/11/25 01:33:43;;;;;;;1.38;1.38;;;5.30;99.90;;;;;;4958893;28;20444;-67
2022/11/25 01:36:14;;;;;;;0.40;0.40;;;5.30;99.90;;;;;;4958618;28;20221;-68
2022/11/25 01:38:40;;;;;;;0.40;0.40;;;5.30;99.90;;;;;;4958335;28;20538;-67
2022/11/25 01:41:09;;;;;;;0.30;0.30;;;5.30;99.90;;;;;;4958425;28;20293;-66
2022/11/25 01:43:35;;;;;;;0.30;0.30;;;5.40;99.90;;;;;;4958660;28;20202;-68
2022/11/25 01:46:18;;;;;;;0.40;0.40;;;5.30;99.90;;;;;;4958323;28;20229;-67
2022/11/25 01:49:00;;;;;;;0.40;0.40;;;5.10;99.90;;;;;;4958267;28;20411;-69
2022/11/25 01:51:43;;;;;;;0.40;0.40;;;5.20;99.90;;;;;;4958318;28;20647;-68
2022/11/25 01:54:12;;;;;;;0.40;0.40;;;5.20;99.90;;;;;;4958495;28;20265;-67
2022/11/25 01:56:45;;;;;;;0.40;0.40;;;5.30;99.90;;;;;;4958255;28;20229;-66
2022/11/25 01:59:12;;;;;;;0.30;0.30;;;5.30;99.90;;;;;;4958234;28;20569;-66
2022/11/25 02:01:38;;;;;;;0.32;0.32;;;5.30;99.90;;;;;;4958214;28;20236;-68
2022/11/25 02:04:05;;;;;;;0.30;0.30;;;5.40;99.90;;;;;;4958038;28;20177;-66
2022/11/25 02:06:40;;;;;;;0.30;0.30;;;5.40;99.90;;;;;;4958144;28;20656;-68
2022/11/25 02:09:07;;;;;;;0.30;0.30;;;5.50;99.90;;;;;;4958164;28;20592;-66
2022/11/25 02:11:37;;;;;;;0.40;0.40;;;5.60;99.90;;;;;;4958112;28;20170;-68
2022/11/25 02:14:03;;;;;;;0.50;0.50;;;5.60;99.90;;;;;;4958087;28;20165;-68
2022/11/25 02:16:29;;;;;;;0.30;0.30;;;5.50;99.90;;;;;;4957716;28;20260;-67
2022/11/25 02:18:55;;;;;;;0.40;0.40;;;5.50;99.90;;;;;;4957007;28;20543;-68
2022/11/25 02:21:29;;;;;;;0.30;0.30;;;5.60;99.90;;;;;;4957819;28;20256;-65
2022/11/25 02:24:13;;;;;;;0.40;0.40;;;5.60;99.90;;;;;;4957938;28;20213;-66
2022/11/25 02:26:38;;;;;;;0.30;0.30;;;5.60;99.90;;;;;;4957921;28;20194;-66
2022/11/25 02:29:04;;;;;;;0.50;0.50;;;5.70;99.90;;;;;;4957517;28;20628;-68
2022/11/25 02:31:30;;;;;;;0.40;0.40;;;5.60;99.90;;;;;;4957650;28;20166;-68
2022/11/25 02:33:56;;;;;;;0.30;0.30;;;5.60;99.90;;;;;;4957445;28;20575;-67
2022/11/25 02:36:22;;;;;;;1.80;0.70;;;5.70;99.90;;;;;;4957218;28;20350;-67
2022/11/25 02:38:57;;;;;;;0.30;0.30;;;5.70;99.90;;;;;;4957452;28;20569;-67
2022/11/25 02:41:37;;;;;;;0.30;0.30;;;5.70;99.90;;;;;;4956830;28;20291;-67
2022/11/25 02:44:03;;;;;;;0.40;0.40;;;5.60;99.90;;;;;;4956889;28;20181;-67
2022/11/25 02:46:29;;;;;;;0.30;0.30;;;5.60;99.90;;;;;;4956802;28;20322;-67
2022/11/25 02:48:56;;;;;;;0.40;0.40;;;5.60;99.90;;;;;;4956935;28;20261;-67
2022/11/25 02:51:25;;;;;;;1.70;0.60;;;5.50;99.90;;;;;;4957040;28;20213;-66
2022/11/25 02:53:51;;;;;;;0.40;0.40;;;5.50;99.90;;;;;;4957061;28;20209;-67
2022/11/25 02:56:18;;;;;;;0.33;0.33;;;5.50;99.90;;;;;;4955687;28;20250;-67
2022/11/25 02:58:44;;;;;;;0.40;0.40;;;5.40;99.90;;;;;;4957125;28;20173;-67
2022/11/25 03:01:09;;;;;;;0.30;0.30;;;5.40;99.90;;;;;;4957386;28;20541;-67
2022/11/25 03:03:36;;;;;;;0.40;0.40;;;5.40;99.90;;;;;;4957476;28;20169;-67
2022/11/25 03:06:03;;;;;;;0.40;0.40;;;5.50;99.90;;;;;;4956331;28;20639;-66
2022/11/25 03:08:28;;;;;;;0.70;0.70;;;5.50;99.90;;;;;;4957223;28;20189;-67
2022/11/25 03:10:54;;;;;;;0.40;0.40;;;5.50;99.90;;;;;;4956972;28;20170;-67
2022/11/25 03:13:19;;;;;;;0.40;0.40;;;5.40;99.90;;;;;;4957170;28;20180;-67
2022/11/25 03:15:45;;;;;;;0.37;0.37;;;5.30;99.90;;;;;;4957019;28;20659;-67
2022/11/25 03:18:11;;;;;;;0.40;0.40;;;5.30;99.90;;;;;;4957397;28;20666;-67
2022/11/25 03:20:36;;;;;;;0.30;0.30;;;5.40;99.90;;;;;;4956776;28;20169;-66
2022/11/25 03:23:04;;;;;;;0.30;0.30;;;5.40;99.90;;;;;;4956869;28;20292;-67
2022/11/25 03:25:30;;;;;;;0.40;0.40;;;5.40;99.90;;;;;;4956869;28;20166;-66
2022/11/25 03:27:56;;;;;;;0.30;0.30;;;5.30;99.90;;;;;;4956725;28;20189;-67
2022/11/25 03:30:24;;;;;;;0.97;0.97;;;5.30;99.90;;;;;;4955536;28;20532;-67
2022/11/25 03:32:49;;;;;;;0.40;0.40;;;5.40;99.90;;;;;;4956789;28;20921;-67
2022/11/25 03:35:16;;;;;;;0.40;0.40;;;5.40;99.90;;;;;;4957070;28;20185;-67
2022/11/25 03:37:43;;;;;;;0.30;0.30;;;5.40;99.90;;;;;;4956481;29;20188;-67
2022/11/25 03:40:10;;;;;;;2.63;2.15;;;5.40;99.90;;;;;;4956468;28;20185;-67
2022/11/25 03:42:36;;;;;;;0.40;0.40;;;5.50;99.90;;;;;;4956565;28;20565;-67
2022/11/25 03:45:02;;;;;;;0.63;0.63;;;5.50;99.90;;;;;;4956742;28;20225;-67
2022/11/25 03:47:27;;;;;;;0.40;0.40;;;5.50;99.90;;;;;;4956807;28;20244;-67
2022/11/25 03:49:53;;;;;;;0.30;0.30;;;5.50;99.90;;;;;;4956220;28;20556;-67
2022/11/25 03:52:19;;;;;;;0.40;0.40;;;5.50;99.90;;;;;;4956248;28;20577;-66
2022/11/25 03:54:45;;;;;;;0.30;0.30;;;5.50;99.90;;;;;;4956345;28;20258;-66
2022/11/25 03:57:11;;;;;;;0.40;0.40;;;5.50;99.90;;;;;;4956379;28;20986;-67
2022/11/25 03:59:36;;;;;;;0.40;0.40;;;5.50;99.90;;;;;;4955981;28;20413;-66
2022/11/25 04:02:02;;;;;;;0.40;0.40;;;5.50;99.90;;;;;;4955257;29;20197;-66
2022/11/25 04:04:28;;;;;;;0.30;0.30;;;5.50;99.90;;;;;;4956629;28;20507;-67
2022/11/25 04:06:54;;;;;;;0.40;0.40;;;5.40;99.90;;;;;;4955963;28;20273;-67
2022/11/25 04:09:19;;;;;;;0.30;0.30;;;5.30;99.90;;;;;;4955768;28;20174;-67
2022/11/25 04:14:30;;;;;;;0.30;0.30;;;5.40;99.90;;;;;;4956034;29;20229;-67
2022/11/25 04:16:55;;;;;;;0.35;0.35;;;5.40;99.90;;;;;;4955831;28;20299;-67
2022/11/25 04:19:21;;;;;;;0.30;0.30;;;5.40;99.90;;;;;;4955700;28;20178;-67
2022/11/25 04:21:47;;;;;;;0.30;0.30;;;5.40;99.90;;;;;;4955852;28;20197;-67
2022/11/25 04:24:12;;;;;;;0.40;0.40;;;5.30;99.90;;;;;;4955976;28;20197;-67
2022/11/25 04:26:39;;;;;;;1.53;1.43;;;5.30;99.90;;;;;;4956023;28;20314;-66
2022/11/25 04:29:05;;;;;;;0.40;0.40;;;5.20;99.90;;;;;;4955776;28;20566;-66
2022/11/25 04:31:31;;;;;;;0.40;0.40;;;5.10;99.90;;;;;;4955634;28;20256;-66
2022/11/25 04:33:56;;;;;;;0.30;0.30;;;5.00;99.90;;;;;;4956029;28;20220;-67
2022/11/25 04:36:22;;;;;;;0.40;0.40;;;5.00;99.90;;;;;;4955697;28;20200;-67
2022/11/25 04:38:49;;;;;;;0.40;0.40;;;5.00;99.90;;;;;;4954086;29;20177;-67
2022/11/25 04:41:14;;;;;;;0.32;0.32;;;5.00;99.90;;;;;;4955480;28;20497;-67
2022/11/25 04:43:40;;;;;;;0.40;0.40;;;5.00;99.90;;;;;;4955503;28;20248;-67
2022/11/25 04:46:06;;;;;;;0.50;0.50;;;5.00;99.90;;;;;;4955766;28;20208;-67
2022/11/25 04:48:32;;;;;;;0.40;0.40;;;5.00;99.90;;;;;;4955275;28;20627;-67
2022/11/25 04:50:58;;;;;;;0.40;0.40;;;4.90;99.90;;;;;;4955548;28;20268;-67
2022/11/25 04:53:23;;;;;;;0.40;0.40;;;4.80;99.90;;;;;;4955651;28;20409;-67
2022/11/25 04:55:49;;;;;;;1.07;1.07;;;4.70;99.90;;;;;;4955271;28;20197;-68
2022/11/25 04:59:38;;;;;;;0.30;0.30;;;4.70;99.90;;;;;;4955973;28;20565;-67
2022/11/25 05:01:01;;;;;;;1.15;0.90;;;4.70;99.90;;;;;;4955234;29;20708;-66
2022/11/25 05:03:26;;;;;;;0.40;0.40;;;4.60;99.90;;;;;;4955483;28;20201;-67
2022/11/25 05:05:52;;;;;;;0.30;0.30;;;4.50;99.90;;;;;;4955792;28;20855;-67
2022/11/25 05:08:17;;;;;;;0.40;0.40;;;4.50;99.90;;;;;;4955355;28;20542;-67
2022/11/25 05:10:43;;;;;;;0.40;0.40;;;4.50;99.90;;;;;;4955675;28;20248;-67
2022/11/25 05:13:09;;;;;;;0.30;0.30;;;4.50;99.90;;;;;;4955165;28;20691;-67
2022/11/25 05:15:34;;;;;;;0.30;0.30;;;4.50;99.90;;;;;;4955100;28;20229;-66
2022/11/25 05:18:00;;;;;;;0.60;0.60;;;4.60;99.90;;;;;;4955165;28;20638;-67
2022/11/25 05:20:26;;;;;;;0.40;0.40;;;4.50;99.90;;;;;;4955288;28;20261;-67
2022/11/25 05:22:51;;;;;;;0.57;0.57;;;4.60;99.90;;;;;;4955673;28;20212;-66
2022/11/25 05:25:19;;;;;;;0.30;0.30;;;4.60;99.90;;;;;;4955623;28;20177;-67
2022/11/25 05:27:46;;;;;;;0.40;0.40;;;4.80;99.90;;;;;;4955940;28;20525;-67
2022/11/25 05:30:12;;;;;;;2.67;1.30;;;4.90;99.90;;;;;;4954980;28;20177;-66
2022/11/25 05:32:39;;;;;;;0.50;0.50;;;4.90;99.90;;;;;;4953915;29;20227;-67
2022/11/25 05:35:05;;;;;;;0.40;0.40;;;5.00;99.90;;;;;;4955337;28;20415;-67
2022/11/25 05:37:31;;;;;;;0.30;0.30;;;5.00;99.90;;;;;;4955322;28;20689;-67
2022/11/25 05:39:56;;;;;;;0.30;0.30;;;5.00;99.90;;;;;;4954904;28;20260;-67
2022/11/25 05:42:22;;;;;;;0.40;0.40;;;5.00;99.90;;;;;;4955487;28;20607;-67
2022/11/25 05:44:48;;;;;;;1.03;1.03;;;5.10;99.90;;;;;;4954951;28;20178;-66
2022/11/25 05:47:13;;;;;;;0.30;0.30;;;5.10;99.90;;;;;;4954470;28;20718;-66
2022/11/25 05:49:39;;;;;;;0.30;0.30;;;5.20;99.90;;;;;;4954741;28;20178;-66
2022/11/25 05:52:05;;;;;;;0.40;0.40;;;5.10;99.90;;;;;;4955295;28;20173;-67
2022/11/25 05:54:30;;;;;;;1.00;0.67;;;5.10;99.90;;;;;;4957505;28;20174;-67
2022/11/25 05:56:56;;;;;;;0.63;0.63;;;5.10;99.90;;;;;;4957708;28;20198;-66
2022/11/25 05:59:21;;;;;;;0.70;0.40;;;5.00;99.90;;;;;;4956815;29;20186;-67
2022/11/25 06:01:47;;;;;;;0.40;0.40;;;5.00;99.90;;;;;;4958302;28;20212;-66
2022/11/25 06:04:13;;;;;;;0.40;0.40;;;5.10;99.90;;;;;;4958496;28;20176;-67
2022/11/25 06:06:39;;;;;;;0.40;0.40;;;5.10;99.90;;;;;;4958483;28;20194;-67
2022/11/25 06:09:04;;;;;;;0.37;0.37;;;5.10;99.90;;;;;;4958296;28;20419;-67
2022/11/25 06:11:30;;;;;;;0.30;0.30;;;5.10;99.90;;;;;;4958374;28;20657;-66
2022/11/25 06:13:57;;;;;;;0.60;0.60;;;5.10;99.90;;;;;;4958074;28;20254;-67
2022/11/25 06:16:23;;;;;;;0.30;0.30;;;5.20;99.90;;;;;;4957783;28;20240;-66
2022/11/25 06:18:49;;;;;;;0.30;0.30;;;5.10;99.90;;;;;;4957950;28;20182;-67
2022/11/25 06:21:15;;;;;;;0.40;0.40;;;5.10;99.90;;;;;;4958208;28;20209;-67
2022/11/25 06:23:41;;;;;;;0.30;0.30;;;5.20;99.90;;;;;;4957037;28;20193;-67
2022/11/25 06:26:11;;;;;;;2.60;2.50;;;5.20;99.90;;;;;;4957555;28;20444;-67
2022/11/25 06:28:36;;;;;;;0.47;0.47;;;5.20;99.90;;;;;;4957877;28;20546;-67
2022/11/25 06:31:07;;;;;;;0.30;0.30;;;5.10;99.90;;;;;;4958106;28;20208;-67
2022/11/25 06:33:33;;;;;;;0.35;0.35;;;5.10;99.90;;;;;;4958145;28;20174;-67
2022/11/25 06:36:00;;;;;;;0.40;0.40;;;5.10;99.90;;;;;;4957808;28;20189;-67
2022/11/25 06:38:27;;;;;;;0.40;0.40;;;5.10;99.90;;;;;;4958201;28;20543;-66
2022/11/25 06:40:52;;;;;;;0.73;0.65;;;5.10;99.90;;;;;;4957285;28;20232;-67
2022/11/25 06:43:18;;;;;;;0.40;0.40;;;5.10;99.90;;;;;;4956335;29;20276;-67
2022/11/25 06:45:43;;;;;;;0.40;0.40;;;5.20;99.90;;;;;;4957760;28;20189;-67
2022/11/25 06:48:09;;;;;;;0.37;0.37;;;5.20;99.90;;;;;;4956536;29;20177;-67
2022/11/25 06:50:34;;;;;;;0.30;0.30;;;5.10;99.90;;;;;;4957675;28;20619;-67
2022/11/25 06:53:01;;;;;;;0.30;0.30;;;5.20;99.90;;;;;;4957330;28;20173;-67
2022/11/25 06:55:26;;;;;;;0.40;0.40;;;5.30;99.90;;;;;;4957560;28;20277;-66
2022/11/25 06:57:52;;;;;;;0.97;0.97;;;5.30;99.90;;;;;;4957331;28;20259;-66
2022/11/25 07:00:18;;;;;;;0.40;0.40;;;5.40;99.90;;;;;;4957248;28;20181;-66
2022/11/25 07:02:44;;;;;;;0.40;0.40;;;5.50;99.90;;;;;;4957446;28;20213;-67
2022/11/25 07:05:09;;;;;;;0.40;0.40;;;5.50;99.90;;;;;;4957415;28;20623;-65
2022/11/25 07:07:36;;;;;;;0.47;0.47;;;5.50;99.90;;;;;;4957278;28;20257;-67
2022/11/25 07:10:02;;;;;;;0.40;0.40;;;5.50;99.90;;;;;;4957099;28;20580;-67
2022/11/25 07:12:29;;;;;;;0.88;0.88;;;5.50;99.90;;;;;;4957145;28;20578;-68
2022/11/25 07:14:55;;;;;;;0.40;0.40;;;5.50;99.90;;;;;;4955671;29;20273;-67
2022/11/25 07:17:20;;;;;;;0.30;0.30;;;5.50;99.90;;;;;;4956340;28;20738;-67
2022/11/25 07:19:46;;;;;;;0.30;0.30;;;5.70;99.90;;;;;;4956540;28;20208;-67
2022/11/25 07:22:12;;;;;;;1.57;0.80;;;5.90;99.90;;;;;;4956688;28;20193;-68
2022/11/25 07:24:37;;;;;;;0.40;0.40;;;6.10;99.90;;;;;;4956777;28;20177;-68
2022/11/25 07:27:05;;;;;;;3.17;0.70;;;6.20;99.90;;;;;;4956529;28;20189;-67
2022/11/25 07:29:31;;;;;;;0.47;0.40;;;6.40;99.90;;;;;;4956448;28;20170;-68
2022/11/25 07:31:57;;;;;;;0.67;0.60;;;6.70;99.90;;;;;;4955408;29;20669;-67
2022/11/25 07:34:22;;;;;;;0.40;0.40;;;6.90;99.90;;;;;;4955399;29;20207;-68
2022/11/25 07:36:49;;;;;;;0.40;0.40;;;7.20;99.90;;;;;;4955978;28;20278;-68
2022/11/25 07:39:18;;;;;;;0.40;0.40;;;7.40;99.90;;;;;;4956172;28;20186;-68
2022/11/25 07:41:44;;;;;;;0.30;0.30;;;7.60;99.90;;;;;;4956316;28;20212;-68
2022/11/25 07:44:12;;;;;;;0.60;0.60;;;7.80;99.90;;;;;;4956614;28;20642;-68
2022/11/25 07:46:41;;;;;;;0.30;0.30;;;7.90;99.90;;;;;;4956208;28;20200;-68
2022/11/25 07:49:10;;;;;;;1.80;0.45;;;8.10;99.90;;;;;;4956125;28;20551;-70
2022/11/25 07:51:39;;;;;;;0.50;0.50;;;8.20;99.90;;;;;;4954171;28;20268;-69
2022/11/25 07:54:07;;;;;;;1.17;0.70;;;8.30;99.90;;;;;;4956469;28;20212;-67
2022/11/25 07:56:35;;;;;;;0.80;0.80;;;8.30;99.90;;;;;;4956332;28;20531;-69
2022/11/25 07:59:00;;;;;;;0.40;0.40;;;8.20;99.90;;;;;;4956136;28;20169;-70
2022/11/25 08:01:26;;;;;;;1.03;0.60;;;8.00;99.90;;;;;;4956490;28;20212;-68
2022/11/25 08:03:52;;;;;;;0.77;0.77;;;7.90;99.90;;;;;;4956578;28;20216;-69
2022/11/25 08:06:20;;;;;;;0.90;0.90;;;7.90;99.90;;;;;;4955471;28;20193;-70
2022/11/25 08:08:47;;;;;;;0.55;0.55;;;7.70;99.90;;;;;;4956075;28;20185;-71
2022/11/25 08:11:19;;;;;;;1.50;0.93;;;7.60;99.90;;;;;;4954500;29;20591;-70
2022/11/25 08:13:51;;;;;;;0.43;0.43;;;7.50;99.90;;;;;;4955763;28;20170;-70
2022/11/25 08:16:20;;;;;;;1.98;1.88;;;7.50;99.90;;;;;;4952918;28;20208;-69
2022/11/25 08:18:46;;;;;;;0.75;0.70;;;7.40;99.90;;;;;;4954412;28;20261;-71
2022/11/25 08:21:13;;;;;;;1.20;1.10;;;7.40;99.90;;;;;;4955056;28;20594;-72
2022/11/25 08:23:42;;;;;;;0.30;0.30;;;7.50;99.90;;;;;;4955151;28;20211;-68
2022/11/25 08:26:12;;;;;;;0.60;0.60;;;7.50;99.90;;;;;;4955406;28;20216;-69
2022/11/25 08:28:40;;;;;;;1.15;0.68;;;7.50;99.90;;;;;;4957017;28;20661;-69
2022/11/25 08:31:08;;;;;;;0.40;0.40;;;7.70;99.90;;;;;;4955801;28;20631;-68
2022/11/25 08:33:34;;;;;;;0.43;0.43;;;7.90;99.90;;;;;;4954344;29;20190;-69
2022/11/25 08:36:00;;;;;;;0.30;0.30;;;8.00;99.90;;;;;;4955751;28;20240;-68
2022/11/25 08:38:27;;;;;;;0.30;0.30;;;8.00;99.90;;;;;;4955224;28;20193;-69
2022/11/25 08:40:53;;;;;;;0.50;0.50;;;8.10;99.90;;;;;;4955753;28;20563;-68
2022/11/25 08:43:20;;;;;;;0.38;0.38;;;8.20;99.90;;;;;;4955558;28;20212;-70
2022/11/25 08:45:47;;;;;;;0.85;0.85;;;8.10;99.90;;;;;;4953698;28;20218;-69
2022/11/25 08:48:14;;;;;;;0.55;0.52;;;8.00;99.90;;;;;;4955187;28;20183;-71
2022/11/25 08:50:43;;;;;;;0.45;0.45;;;8.10;99.90;;;;;;4955515;28;20177;-70
2022/11/25 08:53:09;;;;;;;0.40;0.40;;;8.20;99.90;;;;;;4955689;28;20185;-70
2022/11/25 08:55:37;;;;;;;0.67;0.67;;;8.30;99.90;;;;;;4955703;28;20181;-71
2022/11/25 08:58:03;;;;;;;0.40;0.40;;;8.30;99.90;;;;;;4955953;28;20206;-70
2022/11/25 09:00:28;;;;;;;0.30;0.30;;;8.30;99.90;;;;;;4954733;28;20190;-71
2022/11/25 09:02:54;;;;;;;0.50;0.50;;;8.30;99.90;;;;;;4955492;28;20251;-70
2022/11/25 09:05:20;;;;;;;0.50;0.50;;;8.40;99.90;;;;;;4955421;28;20185;-70
2022/11/25 09:07:45;;;;;;;0.40;0.40;;;8.50;99.90;;;;;;4955677;28;20181;-71
2022/11/25 09:10:14;;;;;;;0.50;0.40;;;8.60;99.90;;;;;;4955201;28;20178;-70
2022/11/25 09:12:40;;;;;;;2.90;1.13;;;8.70;99.90;;;;;;4954090;29;20188;-70
2022/11/25 09:15:06;;;;;;;1.37;1.03;;;8.80;99.90;;;;;;4955232;28;20184;-70
2022/11/25 09:17:36;;;;;;;0.70;0.70;;;8.80;99.90;;;;;;4954527;28;20452;-70
2022/11/25 09:20:04;;;;;;;0.40;0.40;;;8.80;99.90;;;;;;4953783;29;20188;-70
2022/11/25 09:22:31;;;;;;;0.30;0.30;;;8.70;99.90;;;;;;4955148;28;20205;-70
2022/11/25 09:24:56;;;;;;;0.60;0.50;;;8.60;99.90;;;;;;4953957;29;20184;-70
2022/11/25 09:27:22;;;;;;;0.30;0.30;;;8.50;99.90;;;;;;4955813;28;20667;-70
2022/11/25 09:29:48;;;;;;;0.40;0.40;;;8.50;99.90;;;;;;4958356;28;20177;-69
2022/11/25 09:32:13;;;;;;;0.30;0.30;;;8.40;99.90;;;;;;4958731;28;20177;-70
2022/11/25 09:34:39;;;;;;;0.50;0.50;;;8.30;99.90;;;;;;4959018;28;20181;-70
2022/11/25 09:37:05;;;;;;;0.60;0.60;;;8.40;99.90;;;;;;4959334;28;20709;-70
2022/11/25 09:39:31;;;;;;;0.43;0.43;;;8.40;99.90;;;;;;4958632;28;20230;-70
2022/11/25 09:48:20;;;;;;;0.30;0.30;;;8.40;99.90;;;;;;4958805;29;20287;-68
2022/11/25 09:51:06;;;;;;;0.40;0.40;;;8.50;99.90;;;;;;4958394;28;20176;-68
2022/11/25 09:53:50;;;;;;;0.30;0.30;;;8.70;99.90;;;;;;4958404;28;20267;-68
2022/11/25 09:56:27;;;;;;;0.40;0.40;;;8.80;99.90;;;;;;4958549;28;20252;-67
2022/11/25 09:59:03;;;;;;;0.30;0.30;;;8.90;99.90;;;;;;4958035;28;20181;-68
2022/11/25 10:01:30;;;;;;;0.40;0.40;;;8.90;99.90;;;;;;4958143;28;20200;-67
2022/11/25 10:04:03;;;;;;;0.30;0.30;;;8.80;99.90;;;;;;4957737;28;20211;-66
2022/11/25 10:06:36;;;;;;;0.70;0.70;;;8.90;99.90;;;;;;4957386;28;20202;-67
2022/11/25 10:09:12;;;;;;;0.40;0.40;;;9.00;99.90;;;;;;4958333;28;20287;-67
2022/11/25 10:11:50;;;;;;;0.50;0.50;;;9.10;99.90;;;;;;4958486;28;20174;-67
2022/11/25 10:14:18;;;;;;;0.70;0.70;;;9.20;99.90;;;;;;4958458;28;20246;-67
2022/11/25 10:16:52;;;;;;;0.50;0.50;;;9.40;99.90;;;;;;4957850;28;20208;-67
2022/11/25 10:19:37;;;;;;;0.40;0.40;;;9.40;99.90;;;;;;4958230;28;20177;-68
2022/11/25 10:22:21;;;;;;;1.10;0.52;;;9.50;99.90;;;;;;4957980;28;20256;-66
2022/11/25 10:24:48;;;;;;;0.30;0.30;;;9.60;99.90;;;;;;4958158;28;20232;-66
2022/11/25 10:27:21;;;;;;;1.30;0.50;;;9.70;99.90;;;;;;4958317;28;20277;-67
2022/11/25 10:29:55;;;;;;;0.30;0.30;;;9.80;99.90;;;;;;4957665;28;20566;-67
2022/11/25 10:32:26;;;;;;;0.40;0.40;;;9.80;99.90;;;;;;4957693;28;20168;-68
2022/11/25 10:34:59;;;;;;;0.50;0.50;;;9.90;99.90;;;;;;4957035;28;20256;-67
2022/11/25 10:37:32;;;;;;;0.43;0.43;;;10.00;99.90;;;;;;4957980;28;20194;-67
2022/11/25 10:39:57;;;;;;;0.60;0.60;;;10.00;99.90;;;;;;4956888;28;20315;-67
2022/11/25 10:42:26;;;;;;;0.40;0.40;;;10.00;99.90;;;;;;4957581;28;20205;-67
2022/11/25 10:44:53;;;;;;;0.30;0.30;;;10.00;99.90;;;;;;4957362;28;20581;-67
2022/11/25 10:47:25;;;;;;;0.30;0.30;;;10.00;99.90;;;;;;4956951;28;20666;-67
2022/11/25 10:50:21;;;;;;;0.40;0.40;;;10.00;99.60;;;;;;4957325;28;20173;-67
2022/11/25 10:53:00;;;;;;;0.40;0.40;;;9.90;99.90;;;;;;4957398;28;20782;-67
2022/11/25 10:55:31;;;;;;;0.98;0.98;;;9.80;99.90;;;;;;4957209;28;20200;-67
2022/11/25 10:57:58;;;;;;;0.60;0.60;;;9.60;99.90;;;;;;4957090;28;20173;-67
2022/11/25 11:00:34;;;;;;;1.05;1.05;;;9.60;99.90;;;;;;4957273;28;20544;-67
2022/11/25 11:03:23;;;;;;;0.30;0.30;;;9.60;99.90;;;;;;4957281;28;20260;-67
2022/11/25 11:05:51;;;;;;;0.90;0.90;;;9.60;99.90;;;;;;4957378;28;20276;-67
2022/11/25 11:08:19;;;;;;;0.50;0.50;;;9.60;99.90;;;;;;4956998;28;20182;-66
2022/11/25 11:10:46;;;;;;;0.30;0.30;;;9.50;99.90;;;;;;4956609;28;20178;-66
2022/11/25 11:13:29;;;;;;;0.32;0.32;;;9.40;99.90;;;;;;4957029;28;20204;-67
2022/11/25 11:15:54;;;;;;;0.40;0.40;;;9.30;99.90;;;;;;4956463;28;20205;-68
2022/11/25 11:18:20;;;;;;;0.30;0.30;;;9.00;99.90;;;;;;4957202;28;20666;-68
2022/11/25 11:20:49;;;;;;;0.30;0.30;;;8.90;99.90;;;;;;4956580;28;20174;-68
2022/11/25 11:23:14;;;;;;;0.40;0.40;;;8.90;99.90;;;;;;4957048;28;20667;-68
2022/11/25 11:25:43;;;;;;;0.67;0.67;;;9.00;99.90;;;;;;4955810;28;20197;-67
2022/11/25 11:28:34;;;;;;;0.30;0.30;;;8.90;99.90;;;;;;4957291;28;20177;-68
2022/11/25 11:31:24;;;;;;;0.40;0.40;;;8.80;99.90;;;;;;4956793;28;20624;-69
2022/11/25 11:33:59;;;;;;;0.30;0.30;;;8.80;99.90;;;;;;4957131;28;20585;-66
2022/11/25 11:36:51;;;;;;;0.50;0.50;;;8.80;99.90;;;;;;4956906;28;20196;-66
2022/11/25 11:39:27;;;;;;;0.40;0.40;;;8.90;99.90;;;;;;4956496;28;20217;-67
2022/11/25 11:42:30;;;;;;;0.95;0.95;;;8.90;99.90;;;;;;4956363;28;20555;-67
2022/11/25 11:45:24;;;;;;;0.40;0.40;;;8.80;99.90;;;;;;4955532;29;20201;-66
2022/11/25 11:48:16;;;;;;;0.40;0.40;;;8.80;99.90;;;;;;4956285;28;20249;-68
2022/11/25 11:50:57;;;;;;;0.40;0.40;;;8.80;99.90;;;;;;4953841;28;20177;-67
2022/11/25 11:53:30;;;;;;;0.30;0.30;;;8.80;99.90;;;;;;4955640;29;20185;-65
2022/11/25 11:56:05;;;;;;;0.60;0.60;;;8.90;99.90;;;;;;4956235;28;20742;-66
2022/11/25 11:58:49;;;;;;;0.40;0.40;;;9.00;99.90;;;;;;4956422;28;20184;-66
2022/11/25 12:01:27;;;;;;;0.30;0.30;;;8.90;99.90;;;;;;4956299;28;20174;-67
2022/11/25 12:04:07;;;;;;;0.40;0.40;;;8.90;99.90;;;;;;4956295;28;20509;-68
2022/11/25 12:06:35;;;;;;;0.30;0.30;;;8.90;99.90;;;;;;4955769;28;20181;-67
2022/11/25 12:09:14;;;;;;;0.30;0.30;;;8.90;99.90;;;;;;4955995;28;20177;-66
2022/11/25 12:11:48;;;;;;;0.30;0.30;;;9.00;99.90;;;;;;4956218;28;20177;-66
2022/11/25 12:14:24;;;;;;;0.30;0.30;;;9.00;99.90;;;;;;4956043;28;20182;-67
2022/11/25 12:16:55;;;;;;;0.30;0.30;;;9.00;99.90;;;;;;4955933;28;20564;-69
2022/11/25 12:19:37;;;;;;;0.30;0.30;;;9.00;99.90;;;;;;4955802;28;20196;-67
2022/11/25 12:22:11;;;;;;;0.77;0.77;;;9.10;99.90;;;;;;4956254;28;20224;-66
2022/11/25 12:25:05;;;;;;;1.95;0.93;;;9.10;99.90;;;;;;4955118;29;20184;-66
2022/11/25 12:27:37;;;;;;;0.40;0.40;;;9.10;99.90;;;;;;4956016;28;20192;-68
2022/11/25 12:30:03;;;;;;;0.60;0.52;;;9.10;99.90;;;;;;4955552;28;20260;-65
2022/11/25 12:32:53;;;;;;;0.40;0.40;;;9.00;99.90;;;;;;4956253;28;20248;-68
2022/11/25 12:35:42;;;;;;;0.30;0.30;;;8.90;99.90;;;;;;4955773;28;20177;-68
2022/11/25 12:38:52;;;;;;;0.65;0.40;;;8.80;99.90;;;;;;4955791;28;20180;-67
2022/11/25 12:41:46;;;;;;;0.50;0.50;;;8.70;99.90;;;;;;4955224;28;20522;-68
2022/11/25 12:44:28;;;;;;;0.60;0.60;;;8.70;99.90;;;;;;4955965;28;20169;-65
2022/11/25 12:46:55;;;;;;;0.60;0.60;;;8.70;99.90;;;;;;4955548;28;20218;-65
2022/11/25 12:49:23;;;;;;;0.40;0.40;;;8.70;99.90;;;;;;4955660;28;20207;-68
2022/11/25 12:51:57;;;;;;;0.40;0.40;;;8.80;99.90;;;;;;4955482;28;20199;-66
2022/11/25 12:54:58;;;;;;;0.40;0.40;;;8.80;99.90;;;;;;4955650;28;20577;-67
2022/11/25 12:57:59;;;;;;;0.40;0.40;;;8.80;99.90;;;;;;4955893;28;20251;-68
2022/11/25 13:00:48;;;;;;;0.88;0.88;;;8.80;99.90;;;;;;4955424;28;20177;-68
2022/11/25 13:03:22;;;;;;;0.82;0.82;;;8.90;99.90;;;;;;4957807;28;20252;-67
2022/11/25 13:06:01;;;;;;;0.30;0.30;;;8.80;99.90;;;;;;4958991;28;20211;-67
2022/11/25 13:08:46;;;;;;;0.43;0.43;;;8.70;99.90;;;;;;4959099;28;20176;-69
2022/11/25 13:11:18;;;;;;;0.50;0.50;;;8.80;99.90;;;;;;4959473;28;20622;-67
2022/11/25 13:13:58;;;;;;;0.50;0.50;;;8.80;99.90;;;;;;4959548;28;20176;-69
2022/11/25 13:16:24;;;;;;;0.40;0.40;;;9.00;99.90;;;;;;4959087;28;20214;-67
2022/11/25 13:18:51;;;;;;;0.50;0.50;;;8.90;99.90;;;;;;4959498;28;20252;-68
2022/11/25 13:21:18;;;;;;;0.40;0.40;;;8.90;99.90;;;;;;4959101;28;20321;-67
2022/11/25 13:23:55;;;;;;;0.82;0.68;;;8.90;99.90;;;;;;4959322;28;20252;-69
2022/11/25 13:26:32;;;;;;;0.30;0.30;;;9.10;99.90;;;;;;4959013;28;20189;-68